Nearby METAR Reports

 

TNCA - Queen Beatrix, Lesser Antilles
Distance from station: 0 0km
Updated: 19/11/2017 03:00
NOT Current
Light thunderstorm, Rain, Partly cloudy
Light thunderstorm, Rain, Partly cloudy
 Wind from SSE
Wind: SSE 11 km/h
Temperature: 26°C
Dew Point: 24°C
Humidity: 89%
Barometer: 1007 hPa
Summary: Light thunderstorm, Rain
Clouds: Partly Cloudy
Visibility: 7 km
Cloud details: Few Clouds 366 m
Partly Cloudy 488 m
2017/11/19 07:00 TNCA 190700Z 16006KT 110V200 7000 -TSRA FEW012CB SCT016 26/24 Q1007 A2975
SVJC - Paraguana/Josefa, Venezuela
Distance from station: S 83km
Updated: 20/09/2017 14:00
NOT Current
Mostly Cloudy
Mostly Cloudy
 Wind from NNW
Wind: NNW 28 km/h
Clouds: Mostly Cloudy
Visibility: 10 km
Cloud details: Mostly Cloudy 1829 m
2017/09/20 18:00 SVJC 201800Z 33015KT 9999 BKN060CB XX/XX Q1008
 
TNCC - Hato Air Curacao, Lesser Antilles
Distance from station: ESE 117km
Updated: 19/11/2017 04:00
Light rain, Showers, Partly cloudy
Light rain, Showers, Partly cloudy
 Wind from SSE
Wind: SSE 9 km/h
Temperature: 24°C
Dew Point: 23°C
Humidity: 94%
Barometer: 1008 hPa
Summary: Light rain, Showers
Clouds: Partly Cloudy
Visibility: 10 km
Cloud details: Few Clouds 366 m
Partly Cloudy 427 m
2017/11/19 08:00 TNCC 190800Z 15005KT 9999 -SHRA FEW012CB SCT014TCU 24/23 Q1008 RETS TEMPO 3000 TSRA SCT012CB BKN014TCU
SVCR - Coro/Jose Leonar, Venezuela
Distance from station: SSE 126km
Updated: 20/09/2017 14:00
NOT Current
Clear
Clear
 Wind from E
Wind: E 19 km/h
Summary: Clear
Visibility: greater than 10 km
2017/09/20 18:00 SVCR 201800Z 08010KT CAVOK XX/XX Q1009
 
TNCB - Bonaire/Flamingo, Lesser Antilles
Distance from station: ESE 191km
Updated: 19/11/2017 03:55
Few Clouds
Few Clouds
 Wind from E
Wind: E 7 km/h
Temperature: 27°C
Heat Index: 31°C
Dew Point: 25°C
Humidity: 89%
Barometer: 1007 hPa
Clouds: Few Clouds
Visibility: 10 km
Cloud details: Few Clouds 1097 m
2017/11/19 07:55 TNCB 190755Z AUTO 08004KT 9999 FEW036/// 27/25 Q1007
SVMC - Maracaibo/La Chi, Venezuela
Distance from station: SW 285km
Updated: 18/11/2017 17:00
NOT Current
Mostly Cloudy
Mostly Cloudy
 Wind from NE
Wind: NE 6 km/h
Temperature: 28°C
Heat Index: 33°C
Dew Point: 26°C
Humidity: 89%
Barometer: 1007 hPa
Clouds: Mostly Cloudy
Visibility: 10 km
Cloud details: Mostly Cloudy 396 m
2017/11/18 21:00 SVMC 182100Z 05003KT 9999 BKN013 28/26 Q1007